createdAt,value
2018-09-23T00:00:23.077Z,0.00
2018-09-23T00:01:23.066Z,0.00
2018-09-23T00:02:23.060Z,0.00
2018-09-23T00:03:23.054Z,0.00
2018-09-23T00:04:23.047Z,0.00
2018-09-23T00:05:23.045Z,0.00
2018-09-23T00:06:23.039Z,0.00
2018-09-23T00:07:23.028Z,0.00
2018-09-23T00:08:23.023Z,0.00
2018-09-23T00:09:23.021Z,0.00
2018-09-23T00:10:23.016Z,0.00
2018-09-23T00:11:23.008Z,0.00
2018-09-23T00:12:23.003Z,0.00
2018-09-23T00:13:22.991Z,0.00
2018-09-23T00:14:22.986Z,0.00
2018-09-23T00:15:22.981Z,0.00
2018-09-23T00:16:22.974Z,0.00
2018-09-23T00:17:22.970Z,0.00
2018-09-23T00:18:22.964Z,0.00
2018-09-23T00:19:22.959Z,0.00
2018-09-23T00:20:22.953Z,0.00
2018-09-23T00:21:22.941Z,0.00
2018-09-23T00:22:22.977Z,0.00
2018-09-23T00:23:22.935Z,0.00
2018-09-23T00:24:22.934Z,0.00
2018-09-23T00:25:22.917Z,0.00
2018-09-23T00:26:22.910Z,0.00
2018-09-23T00:27:22.904Z,0.00
2018-09-23T00:28:22.900Z,0.00
2018-09-23T00:29:22.897Z,0.00
2018-09-23T00:30:22.890Z,0.00
2018-09-23T00:31:22.884Z,0.00
2018-09-23T00:32:22.877Z,0.00
2018-09-23T00:33:22.866Z,0.00
2018-09-23T00:34:22.860Z,0.00
2018-09-23T00:35:22.856Z,0.00
2018-09-23T00:36:22.848Z,0.00
2018-09-23T00:37:22.850Z,0.00
2018-09-23T00:38:22.841Z,0.00
2018-09-23T00:39:22.830Z,0.00
2018-09-23T00:40:22.825Z,0.00
2018-09-23T00:41:22.823Z,0.00
2018-09-23T00:42:22.821Z,0.00
2018-09-23T00:43:22.809Z,0.00
2018-09-23T00:44:22.804Z,0.00
2018-09-23T00:45:22.792Z,0.00
2018-09-23T00:46:22.786Z,0.00
2018-09-23T00:47:22.780Z,0.00
2018-09-23T00:48:22.775Z,0.00
2018-09-23T00:49:22.776Z,0.00
2018-09-23T00:50:22.766Z,0.00
2018-09-23T00:51:22.760Z,0.00
2018-09-23T00:52:22.754Z,0.00
2018-09-23T00:53:22.743Z,0.00
2018-09-23T00:54:22.737Z,0.00
2018-09-23T00:55:22.736Z,0.00
2018-09-23T00:56:22.728Z,0.00
2018-09-23T00:57:22.717Z,0.00
2018-09-23T00:58:22.711Z,0.00
2018-09-23T00:59:22.704Z,0.00
2018-09-23T01:00:22.699Z,0.00
2018-09-23T01:01:22.696Z,0.00
2018-09-23T01:02:22.692Z,0.00
2018-09-23T01:03:22.685Z,0.00
2018-09-23T01:04:22.678Z,0.00
2018-09-23T01:05:22.667Z,0.00
2018-09-23T01:06:22.666Z,0.00
2018-09-23T01:07:22.653Z,0.00
2018-09-23T01:08:22.647Z,0.00
2018-09-23T01:09:22.646Z,0.00
2018-09-23T01:10:22.639Z,0.00
2018-09-23T01:11:22.631Z,0.00
2018-09-23T01:12:22.623Z,0.00
2018-09-23T01:13:22.621Z,0.00
2018-09-23T01:14:22.615Z,0.00
2018-09-23T01:15:22.609Z,0.00
2018-09-23T01:16:22.605Z,0.00
2018-09-23T01:17:22.590Z,0.00
2018-09-23T01:18:22.584Z,0.00
2018-09-23T01:19:22.579Z,0.00
2018-09-23T01:20:22.574Z,0.00
2018-09-23T01:21:22.573Z,0.00
2018-09-23T01:22:22.568Z,0.00
2018-09-23T01:23:22.559Z,0.00
2018-09-23T01:24:22.559Z,0.00
2018-09-23T01:25:22.549Z,0.00
2018-09-23T01:26:22.534Z,0.00
2018-09-23T01:27:22.538Z,0.00
2018-09-23T01:28:22.530Z,0.00
2018-09-23T01:29:22.516Z,0.00
2018-09-23T01:30:22.510Z,0.00
2018-09-23T01:31:22.505Z,0.00
2018-09-23T01:32:22.499Z,0.00
2018-09-23T01:33:22.497Z,0.00
2018-09-23T01:34:22.490Z,0.00
2018-09-23T01:35:22.485Z,0.00
2018-09-23T01:36:22.479Z,0.00
2018-09-23T01:37:22.466Z,0.00
2018-09-23T01:38:22.462Z,0.00
2018-09-23T01:39:22.456Z,0.00
2018-09-23T01:40:22.448Z,0.00
2018-09-23T01:41:22.447Z,0.00
2018-09-23T01:42:22.440Z,0.00
2018-09-23T01:43:22.429Z,0.00
2018-09-23T01:44:22.424Z,0.00
2018-09-23T01:45:22.421Z,0.00
2018-09-23T01:46:22.415Z,0.00
2018-09-23T01:47:22.411Z,0.00
2018-09-23T01:48:22.405Z,0.00
2018-09-23T01:49:22.393Z,0.00
2018-09-23T01:50:22.388Z,0.00
2018-09-23T01:51:22.379Z,0.00
2018-09-23T01:52:22.374Z,0.00
2018-09-23T01:53:22.371Z,0.00
2018-09-23T01:54:22.366Z,0.00
2018-09-23T01:55:22.361Z,0.00
2018-09-23T01:56:22.355Z,0.00
2018-09-23T01:57:22.342Z,0.00
2018-09-23T01:58:22.337Z,0.00
2018-09-23T01:59:22.335Z,0.00
2018-09-23T02:00:22.333Z,0.00
2018-09-23T02:01:22.318Z,0.00
2018-09-23T02:02:22.311Z,0.00
2018-09-23T02:03:22.306Z,0.00
2018-09-23T02:04:22.299Z,0.00
2018-09-23T02:05:22.296Z,0.00
2018-09-23T02:06:22.292Z,0.00
2018-09-23T02:07:22.285Z,0.00
2018-09-23T02:08:22.282Z,0.00
2018-09-23T02:09:22.268Z,0.00
2018-09-23T02:10:22.261Z,0.00
2018-09-23T02:11:22.256Z,0.00
2018-09-23T02:12:22.256Z,0.00
2018-09-23T02:13:22.248Z,0.00
2018-09-23T02:14:22.246Z,0.00
2018-09-23T02:15:22.231Z,0.00
2018-09-23T02:16:22.226Z,0.00
2018-09-23T02:17:22.224Z,0.00
2018-09-23T02:18:22.218Z,0.00
2018-09-23T02:19:22.211Z,0.00
2018-09-23T02:20:22.205Z,0.00
2018-09-23T02:21:22.262Z,0.00
2018-09-23T02:22:22.190Z,0.00
2018-09-23T02:23:22.183Z,0.00
2018-09-23T02:24:22.177Z,0.00
2018-09-23T02:25:22.175Z,0.00
2018-09-23T02:26:22.171Z,0.00
2018-09-23T02:27:22.164Z,0.00
2018-09-23T02:28:22.158Z,0.00
2018-09-23T02:29:22.147Z,0.00
2018-09-23T02:30:22.145Z,0.00
2018-09-23T02:31:22.140Z,0.00
2018-09-23T02:32:22.136Z,0.00
2018-09-23T02:33:22.122Z,0.00
2018-09-23T02:34:22.117Z,0.00
2018-09-23T02:35:22.109Z,0.00
2018-09-23T02:36:22.105Z,0.00
2018-09-23T02:37:22.102Z,0.00
2018-09-23T02:38:22.097Z,0.00
2018-09-23T02:39:22.090Z,0.00
2018-09-23T02:40:22.084Z,0.00
2018-09-23T02:41:22.072Z,0.00
2018-09-23T02:42:22.068Z,0.00
2018-09-23T02:43:22.062Z,0.00
2018-09-23T02:44:22.056Z,0.00
2018-09-23T02:45:22.054Z,0.00
2018-09-23T02:46:22.048Z,0.00
2018-09-23T02:47:22.038Z,0.00
2018-09-23T02:48:22.032Z,0.00
2018-09-23T02:49:22.037Z,0.00
2018-09-23T02:50:22.027Z,0.00
2018-09-23T02:51:22.016Z,0.00
2018-09-23T02:52:22.011Z,0.00
2018-09-23T02:53:22.000Z,0.00
2018-09-23T02:54:22.044Z,0.00
2018-09-23T02:55:21.992Z,0.00
2018-09-23T02:56:21.987Z,0.00
2018-09-23T02:57:21.975Z,0.00
2018-09-23T02:58:21.969Z,0.00
2018-09-23T02:59:21.963Z,0.00
2018-09-23T03:00:21.959Z,0.00
2018-09-23T03:01:21.953Z,0.00
2018-09-23T03:02:21.947Z,0.00
2018-09-23T03:03:21.941Z,0.00
2018-09-23T03:04:21.932Z,0.00
2018-09-23T03:05:21.929Z,0.00
2018-09-23T03:06:21.923Z,0.00
2018-09-23T03:07:21.917Z,0.00
2018-09-23T03:08:21.911Z,0.00
2018-09-23T03:09:21.898Z,0.00
2018-09-23T03:10:21.892Z,0.00
2018-09-23T03:11:21.886Z,0.00
2018-09-23T03:12:21.881Z,0.00
2018-09-23T03:13:21.878Z,0.00
2018-09-23T03:14:21.875Z,0.00
2018-09-23T03:15:21.866Z,0.00
2018-09-23T03:16:21.861Z,0.00
2018-09-23T03:17:21.856Z,0.00
2018-09-23T03:18:21.841Z,0.00
2018-09-23T03:19:21.841Z,0.00
2018-09-23T03:20:21.838Z,0.00
2018-09-23T03:21:21.822Z,0.00
2018-09-23T03:22:21.816Z,0.00
2018-09-23T03:23:21.810Z,0.00
2018-09-23T03:24:21.804Z,0.00
2018-09-23T03:25:21.801Z,0.00
2018-09-23T03:26:21.795Z,0.00
2018-09-23T03:27:21.788Z,0.00
2018-09-23T03:28:21.783Z,0.00
2018-09-23T03:29:21.770Z,0.00
2018-09-23T03:30:21.763Z,0.00
2018-09-23T03:31:21.818Z,0.00
2018-09-23T03:32:21.751Z,0.00
2018-09-23T03:33:21.747Z,0.00
2018-09-23T03:34:21.742Z,0.00
2018-09-23T03:35:21.730Z,0.00
2018-09-23T03:36:21.725Z,0.00
2018-09-23T03:37:21.723Z,0.00
2018-09-23T03:38:21.714Z,0.00
2018-09-23T03:39:21.710Z,0.00
2018-09-23T03:40:21.703Z,0.00
2018-09-23T03:41:21.692Z,0.00
2018-09-23T03:42:21.685Z,0.00
2018-09-23T03:43:21.677Z,0.00
2018-09-23T03:44:21.671Z,0.00
2018-09-23T03:45:21.669Z,0.00
2018-09-23T03:46:21.663Z,0.00
2018-09-23T03:47:21.656Z,0.00
2018-09-23T03:48:21.649Z,0.00
2018-09-23T03:49:21.639Z,0.00
2018-09-23T03:50:21.634Z,0.00
2018-09-23T03:51:21.629Z,0.00
2018-09-23T03:52:21.627Z,0.00
2018-09-23T03:53:21.611Z,0.00
2018-09-23T03:54:21.606Z,0.00
2018-09-23T03:55:21.600Z,0.00
2018-09-23T03:56:21.593Z,0.00
2018-09-23T03:57:21.591Z,0.00
2018-09-23T03:58:21.584Z,0.00
2018-09-23T03:59:21.577Z,0.00
2018-09-23T04:00:21.571Z,0.00
2018-09-23T04:01:21.560Z,0.00
2018-09-23T04:02:21.554Z,0.00
2018-09-23T04:03:21.546Z,0.00
2018-09-23T04:04:21.540Z,0.00
2018-09-23T04:05:21.538Z,0.00
2018-09-23T04:06:21.536Z,0.00
2018-09-23T04:07:21.521Z,0.00
2018-09-23T04:08:21.516Z,0.00
2018-09-23T04:09:21.513Z,0.00
2018-09-23T04:10:21.512Z,0.00
2018-09-23T04:11:21.497Z,0.00
2018-09-23T04:12:21.491Z,0.00
2018-09-23T04:13:21.480Z,0.00
2018-09-23T04:14:21.474Z,0.00
2018-09-23T04:15:21.467Z,0.00
2018-09-23T04:16:21.462Z,0.00
2018-09-23T04:17:21.457Z,0.00
2018-09-23T04:18:21.451Z,0.00
2018-09-23T04:19:21.446Z,0.00
2018-09-23T04:20:21.439Z,0.00
2018-09-23T04:21:21.427Z,0.00
2018-09-23T04:22:21.422Z,0.00
2018-09-23T04:23:21.419Z,0.00
2018-09-23T04:24:21.412Z,0.00
2018-09-23T04:25:21.399Z,0.00
2018-09-23T04:26:21.394Z,0.00
2018-09-23T04:27:21.389Z,0.00
2018-09-23T04:28:21.380Z,0.00
2018-09-23T04:29:21.377Z,0.00
2018-09-23T04:30:21.372Z,0.00
2018-09-23T04:31:21.365Z,0.00
2018-09-23T04:32:21.359Z,0.00
2018-09-23T04:33:21.346Z,0.00
2018-09-23T04:34:21.340Z,0.00
2018-09-23T04:35:21.333Z,0.00
2018-09-23T04:36:21.331Z,0.00
2018-09-23T04:37:21.327Z,0.00
2018-09-23T04:38:21.319Z,0.00
2018-09-23T04:39:21.311Z,0.00
2018-09-23T04:40:21.302Z,0.00
2018-09-23T04:41:21.298Z,0.00
2018-09-23T04:42:21.293Z,0.00
2018-09-23T04:43:21.285Z,0.00
2018-09-23T04:44:21.279Z,0.00
2018-09-23T04:45:21.267Z,0.00
2018-09-23T04:46:21.261Z,0.00
2018-09-23T04:47:21.254Z,0.00
2018-09-23T04:48:21.250Z,0.00
2018-09-23T04:49:21.246Z,0.00
2018-09-23T04:50:21.238Z,0.00
2018-09-23T04:51:21.236Z,0.00
2018-09-23T04:52:21.226Z,0.00
2018-09-23T04:53:21.214Z,0.00
2018-09-23T04:54:21.208Z,0.00
2018-09-23T04:55:21.269Z,0.00
2018-09-23T04:56:21.200Z,0.00
2018-09-23T04:57:21.190Z,0.00
2018-09-23T04:58:21.181Z,0.00
2018-09-23T04:59:21.175Z,0.00
2018-09-23T05:00:21.169Z,0.00
2018-09-23T05:01:21.166Z,0.00
2018-09-23T05:02:21.159Z,0.00
2018-09-23T05:03:21.155Z,0.00
2018-09-23T05:04:21.148Z,0.00
2018-09-23T05:05:21.135Z,0.00
2018-09-23T05:06:21.129Z,0.00
2018-09-23T05:07:21.122Z,0.00
2018-09-23T05:08:21.116Z,0.00
2018-09-23T05:09:21.113Z,0.00
2018-09-23T05:10:21.106Z,0.00
2018-09-23T05:11:21.096Z,0.00
2018-09-23T05:12:21.090Z,0.00
2018-09-23T05:13:21.088Z,0.00
2018-09-23T05:14:21.081Z,0.00
2018-09-23T05:15:21.075Z,0.00
2018-09-23T05:16:21.069Z,0.00
2018-09-23T05:17:21.057Z,0.00
2018-09-23T05:18:21.054Z,0.00
2018-09-23T05:19:21.044Z,0.00
2018-09-23T05:20:21.038Z,0.00
2018-09-23T05:21:21.036Z,0.00
2018-09-23T05:22:21.032Z,0.00
2018-09-23T05:23:21.073Z,5.63
2018-09-23T05:24:21.016Z,5.63
2018-09-23T05:25:21.004Z,5.63
2018-09-23T05:26:20.999Z,5.63
2018-09-23T05:27:20.996Z,11.25
2018-09-23T05:28:20.991Z,11.25
2018-09-23T05:29:20.978Z,11.25
2018-09-23T05:30:20.973Z,16.88
2018-09-23T05:31:20.966Z,16.88
2018-09-23T05:32:20.960Z,16.88
2018-09-23T05:33:20.958Z,16.88
2018-09-23T05:34:20.952Z,22.50
2018-09-23T05:35:21.003Z,22.50
2018-09-23T05:36:20.940Z,22.50
2018-09-23T05:37:20.928Z,22.50
2018-09-23T05:38:20.922Z,22.50
2018-09-23T05:39:20.915Z,22.50
2018-09-23T05:40:20.912Z,22.50
2018-09-23T05:41:20.907Z,22.50
2018-09-23T05:42:20.901Z,16.88
2018-09-23T05:43:20.889Z,16.88
2018-09-23T05:44:20.887Z,11.25
2018-09-23T05:45:20.881Z,11.25
2018-09-23T05:46:20.875Z,11.25
2018-09-23T05:47:20.870Z,11.25
2018-09-23T05:48:20.864Z,11.25
2018-09-23T05:49:20.852Z,11.25
2018-09-23T05:50:20.846Z,11.25
2018-09-23T05:51:20.839Z,11.25
2018-09-23T05:52:20.834Z,11.25
2018-09-23T05:53:20.836Z,16.88
2018-09-23T05:54:20.826Z,22.50
2018-09-23T05:55:20.818Z,22.50
2018-09-23T05:56:20.813Z,22.50
2018-09-23T05:57:20.801Z,22.50
2018-09-23T05:58:20.797Z,22.50
2018-09-23T05:59:20.794Z,22.50
2018-09-23T06:00:20.787Z,22.50
2018-09-23T06:01:20.777Z,22.50
2018-09-23T06:02:20.769Z,22.50
2018-09-23T06:03:20.765Z,22.50
2018-09-23T06:04:20.758Z,22.50
2018-09-23T06:05:20.756Z,22.50
2018-09-23T06:06:20.751Z,22.50
2018-09-23T06:07:20.744Z,22.50
2018-09-23T06:08:20.738Z,28.13
2018-09-23T06:09:20.727Z,28.13
2018-09-23T06:10:20.722Z,28.13
2018-09-23T06:11:20.763Z,28.13
2018-09-23T06:12:20.708Z,28.13
2018-09-23T06:13:20.709Z,28.13
2018-09-23T06:14:20.700Z,28.13
2018-09-23T06:15:20.695Z,28.13
2018-09-23T06:16:20.684Z,33.75
2018-09-23T06:17:20.681Z,33.75
2018-09-23T06:18:20.687Z,33.75
2018-09-23T06:19:20.669Z,33.75
2018-09-23T06:20:20.663Z,33.75
2018-09-23T06:21:20.654Z,33.75
2018-09-23T06:22:20.647Z,33.75
2018-09-23T06:23:20.641Z,39.38
2018-09-23T06:24:20.635Z,39.38
2018-09-23T06:25:20.709Z,39.38
2018-09-23T06:26:20.626Z,39.38
2018-09-23T06:27:20.621Z,45.00
2018-09-23T06:28:20.615Z,45.00
2018-09-23T06:29:20.604Z,50.63
2018-09-23T06:30:20.598Z,50.63
2018-09-23T06:31:20.596Z,50.63
2018-09-23T06:32:20.591Z,50.63
2018-09-23T06:33:20.579Z,50.63
2018-09-23T06:34:20.576Z,56.25
2018-09-23T06:35:20.571Z,61.88
2018-09-23T06:36:20.564Z,67.50
2018-09-23T06:37:20.558Z,73.13
2018-09-23T06:38:20.553Z,73.13
2018-09-23T06:39:20.547Z,78.75
2018-09-23T06:40:20.543Z,78.75
2018-09-23T06:41:20.530Z,78.75
2018-09-23T06:42:20.525Z,78.75
2018-09-23T06:43:20.519Z,84.38
2018-09-23T06:44:20.514Z,84.38
2018-09-23T06:45:20.512Z,90.00
2018-09-23T06:46:20.506Z,95.63
2018-09-23T06:47:20.496Z,95.63
2018-09-23T06:48:20.490Z,106.88
2018-09-23T06:49:20.490Z,106.88
2018-09-23T06:50:20.483Z,106.88
2018-09-23T06:51:20.479Z,101.25
2018-09-23T06:52:20.474Z,101.25
2018-09-23T06:53:20.459Z,101.25
2018-09-23T06:54:20.454Z,101.25
2018-09-23T06:55:20.450Z,112.50
2018-09-23T06:56:20.443Z,118.13
2018-09-23T06:57:20.481Z,123.75
2018-09-23T06:58:20.440Z,118.13
2018-09-23T06:59:20.429Z,118.13
2018-09-23T07:00:20.424Z,118.13
2018-09-23T07:01:20.413Z,123.75
2018-09-23T07:02:20.407Z,123.75
2018-09-23T07:03:20.406Z,123.75
2018-09-23T07:04:20.435Z,135.00
2018-09-23T07:05:20.390Z,146.25
2018-09-23T07:06:20.386Z,157.50
2018-09-23T07:07:20.378Z,163.13
2018-09-23T07:08:20.374Z,157.50
2018-09-23T07:09:20.371Z,151.88
2018-09-23T07:10:20.379Z,146.25
2018-09-23T07:11:20.359Z,140.63
2018-09-23T07:12:20.355Z,140.63
2018-09-23T07:13:20.344Z,140.63
2018-09-23T07:14:20.342Z,146.25
2018-09-23T07:15:20.334Z,146.25
2018-09-23T07:16:20.328Z,140.63
2018-09-23T07:17:20.326Z,140.63
2018-09-23T07:18:20.321Z,146.25
2018-09-23T07:19:20.310Z,146.25
2018-09-23T07:20:20.305Z,146.25
2018-09-23T07:21:20.303Z,157.50
2018-09-23T07:22:20.300Z,163.13
2018-09-23T07:23:20.293Z,163.13
2018-09-23T07:24:20.286Z,168.75
2018-09-23T07:25:20.277Z,180.00
2018-09-23T07:26:20.271Z,185.63
2018-09-23T07:27:20.265Z,191.25
2018-09-23T07:28:20.259Z,191.25
2018-09-23T07:29:20.258Z,191.25
2018-09-23T07:30:20.253Z,202.50
2018-09-23T07:31:20.249Z,213.75
2018-09-23T07:32:20.243Z,225.00
2018-09-23T07:33:20.232Z,225.00
2018-09-23T07:34:20.230Z,236.25
2018-09-23T07:35:20.227Z,258.75
2018-09-23T07:36:20.220Z,264.38
2018-09-23T07:37:20.215Z,258.75
2018-09-23T07:38:20.204Z,253.13
2018-09-23T07:39:20.208Z,253.13
2018-09-23T07:40:20.194Z,253.13
2018-09-23T07:41:20.192Z,258.75
2018-09-23T07:42:20.187Z,281.25
2018-09-23T07:43:20.182Z,303.75
2018-09-23T07:44:20.180Z,298.13
2018-09-23T07:45:20.167Z,298.13
2018-09-23T07:46:20.162Z,264.38
2018-09-23T07:47:20.157Z,241.88
2018-09-23T07:48:20.151Z,236.25
2018-09-23T07:49:20.151Z,258.75
2018-09-23T07:50:20.146Z,286.88
2018-09-23T07:51:20.135Z,286.88
2018-09-23T07:52:20.131Z,270.00
2018-09-23T07:53:20.129Z,247.50
2018-09-23T07:54:20.125Z,225.00
2018-09-23T07:55:20.118Z,230.63
2018-09-23T07:56:20.119Z,219.38
2018-09-23T07:57:20.104Z,213.75
2018-09-23T07:58:20.137Z,213.75
2018-09-23T07:59:20.094Z,196.88
2018-09-23T08:00:20.089Z,196.88
2018-09-23T08:01:20.088Z,202.50
2018-09-23T08:02:20.082Z,213.75
2018-09-23T08:03:20.097Z,225.00
2018-09-23T08:04:20.073Z,213.75
2018-09-23T08:05:20.062Z,202.50
2018-09-23T08:06:20.061Z,208.13
2018-09-23T08:07:20.057Z,219.38
2018-09-23T08:08:20.052Z,213.75
2018-09-23T08:09:20.042Z,208.13
2018-09-23T08:10:20.036Z,196.88
2018-09-23T08:11:20.031Z,174.38
2018-09-23T08:12:20.036Z,157.50
2018-09-23T08:13:20.135Z,146.25
2018-09-23T08:14:20.520Z,151.88
2018-09-23T08:15:20.019Z,180.00
2018-09-23T08:16:20.012Z,196.88
2018-09-23T08:17:20.111Z,196.88
2018-09-23T08:18:19.997Z,219.38
2018-09-23T08:19:20.021Z,253.13
2018-09-23T08:20:20.125Z,264.38
2018-09-23T08:21:20.040Z,275.63
2018-09-23T08:22:19.981Z,281.25
2018-09-23T08:23:20.015Z,275.63
2018-09-23T08:24:19.966Z,264.38
2018-09-23T08:25:20.125Z,270.00
2018-09-23T08:26:19.966Z,258.75
2018-09-23T08:27:19.959Z,225.00
2018-09-23T08:28:19.957Z,213.75
2018-09-23T08:29:19.944Z,219.38
2018-09-23T08:30:19.937Z,241.88
2018-09-23T08:31:19.933Z,225.00
2018-09-23T08:32:19.929Z,196.88
2018-09-23T08:33:19.928Z,185.63
2018-09-23T08:34:19.922Z,191.25
2018-09-23T08:35:19.916Z,196.88
2018-09-23T08:36:19.912Z,180.00
2018-09-23T08:37:19.949Z,157.50
2018-09-23T08:38:19.897Z,140.63
2018-09-23T08:39:19.897Z,140.63
2018-09-23T08:40:19.893Z,151.88
2018-09-23T08:41:19.886Z,180.00
2018-09-23T08:42:19.879Z,230.63
2018-09-23T08:43:19.906Z,241.88
2018-09-23T08:44:19.870Z,253.13
2018-09-23T08:45:19.867Z,264.38
2018-09-23T08:46:19.863Z,298.13
2018-09-23T08:47:19.858Z,303.75
2018-09-23T08:48:19.885Z,281.25
2018-09-23T08:49:19.843Z,247.50
2018-09-23T08:50:19.839Z,225.00
2018-09-23T08:51:19.834Z,202.50
2018-09-23T08:52:19.921Z,168.75
2018-09-23T08:53:19.828Z,146.25
2018-09-23T08:54:19.823Z,146.25
2018-09-23T08:55:19.814Z,151.88
2018-09-23T08:56:19.809Z,151.88
2018-09-23T08:57:19.839Z,140.63
2018-09-23T08:58:19.803Z,146.25
2018-09-23T08:59:19.805Z,151.88
2018-09-23T09:00:19.794Z,140.63
2018-09-23T09:01:19.784Z,151.88
2018-09-23T09:02:19.779Z,168.75
2018-09-23T09:03:19.774Z,185.63
2018-09-23T09:04:19.769Z,202.50
2018-09-23T09:05:19.772Z,208.13
2018-09-23T09:06:19.765Z,213.75
2018-09-23T09:07:19.759Z,208.13
2018-09-23T09:08:19.754Z,202.50
2018-09-23T09:09:19.744Z,213.75
2018-09-23T09:10:19.743Z,196.88
2018-09-23T09:11:19.782Z,151.88
2018-09-23T09:12:19.734Z,129.38
2018-09-23T09:13:19.723Z,129.38
2018-09-23T09:14:19.722Z,123.75
2018-09-23T09:15:19.715Z,106.88
2018-09-23T09:16:19.716Z,106.88
2018-09-23T09:17:19.718Z,106.88
2018-09-23T09:18:19.732Z,101.25
2018-09-23T09:19:19.699Z,95.63
2018-09-23T09:20:19.694Z,84.38
2018-09-23T09:21:19.684Z,78.75
2018-09-23T09:22:19.681Z,78.75
2018-09-23T09:23:19.674Z,90.00
2018-09-23T09:24:19.670Z,101.25
2018-09-23T09:25:19.669Z,118.13
2018-09-23T09:26:19.664Z,123.75
2018-09-23T09:27:19.655Z,140.63
2018-09-23T09:28:19.650Z,163.13
2018-09-23T09:29:19.648Z,146.25
2018-09-23T09:30:19.644Z,151.88
2018-09-23T09:31:19.637Z,168.75
2018-09-23T09:32:19.633Z,174.38
2018-09-23T09:33:19.622Z,157.50
2018-09-23T09:34:19.620Z,174.38
2018-09-23T09:35:19.635Z,202.50
2018-09-23T09:36:19.607Z,202.50
2018-09-23T09:37:19.607Z,208.13
2018-09-23T09:38:19.610Z,213.75
2018-09-23T09:39:19.597Z,230.63
2018-09-23T09:40:19.618Z,213.75
2018-09-23T09:41:19.582Z,213.75
2018-09-23T09:42:19.576Z,202.50
2018-09-23T09:43:19.577Z,219.38
2018-09-23T09:44:19.573Z,264.38
2018-09-23T09:45:19.567Z,331.88
2018-09-23T09:46:19.557Z,326.25
2018-09-23T09:47:19.550Z,281.25
2018-09-23T09:48:19.547Z,309.38
2018-09-23T09:49:19.545Z,315.00
2018-09-23T09:50:19.547Z,320.63
2018-09-23T09:51:19.534Z,326.25
2018-09-23T09:52:19.529Z,337.50
2018-09-23T09:53:19.520Z,337.50
2018-09-23T09:54:19.514Z,320.63
2018-09-23T09:55:19.600Z,286.88
2018-09-23T09:56:19.506Z,281.25
2018-09-23T09:57:19.505Z,253.13
2018-09-23T09:58:19.500Z,219.38
2018-09-23T09:59:19.490Z,219.38
2018-09-23T10:00:19.486Z,225.00
2018-09-23T10:01:19.484Z,275.63
2018-09-23T10:02:19.480Z,298.13
2018-09-23T10:03:19.474Z,315.00
2018-09-23T10:04:19.531Z,298.13
2018-09-23T10:05:19.459Z,286.88
2018-09-23T10:06:19.458Z,286.88
2018-09-23T10:07:19.449Z,331.88
2018-09-23T10:08:19.444Z,292.50
2018-09-23T10:09:19.442Z,247.50
2018-09-23T10:10:19.437Z,213.75
2018-09-23T10:11:19.444Z,208.13
2018-09-23T10:12:19.429Z,225.00
2018-09-23T10:13:19.418Z,230.63
2018-09-23T10:14:19.413Z,213.75
2018-09-23T10:15:19.413Z,196.88
2018-09-23T10:16:19.407Z,185.63
2018-09-23T10:17:19.397Z,163.13
2018-09-23T10:18:19.391Z,135.00
2018-09-23T10:19:19.387Z,129.38
2018-09-23T10:20:19.381Z,135.00
2018-09-23T10:21:19.379Z,151.88
2018-09-23T10:22:19.374Z,146.25
2018-09-23T10:23:19.489Z,151.88
2018-09-23T10:24:19.365Z,163.13
2018-09-23T10:25:19.357Z,185.63
2018-09-23T10:26:19.348Z,219.38
2018-09-23T10:27:19.345Z,225.00
2018-09-23T10:28:19.337Z,196.88
2018-09-23T10:29:19.336Z,174.38
2018-09-23T10:30:19.331Z,146.25
2018-09-23T10:31:19.480Z,123.75
2018-09-23T10:32:19.315Z,106.88
2018-09-23T10:33:19.314Z,101.25
2018-09-23T10:34:19.308Z,101.25
2018-09-23T10:35:19.304Z,106.88
2018-09-23T10:36:19.431Z,106.88
2018-09-23T10:37:19.287Z,106.88
2018-09-23T10:38:19.282Z,106.88
2018-09-23T10:39:19.277Z,106.88
2018-09-23T10:40:19.271Z,112.50
2018-09-23T10:41:19.313Z,118.13
2018-09-23T10:42:19.264Z,118.13
2018-09-23T10:43:19.258Z,112.50
2018-09-23T10:44:19.253Z,101.25
2018-09-23T10:45:19.241Z,95.63
2018-09-23T10:46:19.236Z,101.25
2018-09-23T10:47:19.236Z,106.88
2018-09-23T10:48:19.231Z,112.50
2018-09-23T10:49:19.220Z,84.38
2018-09-23T10:50:19.214Z,67.50
2018-09-23T10:51:19.209Z,73.13
2018-09-23T10:52:19.203Z,73.13
2018-09-23T10:53:19.202Z,67.50
2018-09-23T10:54:19.196Z,56.25
2018-09-23T10:55:19.191Z,61.88
2018-09-23T10:56:19.186Z,67.50
2018-09-23T10:57:19.175Z,73.13
2018-09-23T10:58:19.168Z,78.75
2018-09-23T10:59:19.185Z,101.25
2018-09-23T11:00:19.158Z,106.88
2018-09-23T11:01:19.156Z,78.75
2018-09-23T11:02:19.150Z,61.88
2018-09-23T11:03:19.141Z,73.13
2018-09-23T11:04:19.211Z,90.00
2018-09-23T11:05:19.133Z,112.50
2018-09-23T11:06:19.128Z,140.63
2018-09-23T11:07:19.178Z,185.63
2018-09-23T11:08:19.116Z,258.75
2018-09-23T11:09:19.105Z,264.38
2018-09-23T11:10:19.098Z,247.50
2018-09-23T11:11:19.093Z,253.13
2018-09-23T11:12:19.088Z,264.38
2018-09-23T11:13:19.085Z,270.00
2018-09-23T11:14:19.080Z,281.25
2018-09-23T11:15:19.188Z,275.63
2018-09-23T11:16:19.069Z,309.38
2018-09-23T11:17:19.059Z,337.50
2018-09-23T11:18:19.051Z,326.25
2018-09-23T11:19:19.050Z,343.13
2018-09-23T11:20:19.045Z,320.63
2018-09-23T11:21:19.033Z,365.63
2018-09-23T11:22:19.027Z,433.13
2018-09-23T11:23:19.037Z,472.50
2018-09-23T11:24:19.017Z,461.25
2018-09-23T11:25:19.016Z,461.25
2018-09-23T11:26:19.009Z,461.25
2018-09-23T11:27:19.003Z,450.00
2018-09-23T11:28:19.000Z,399.38
2018-09-23T11:29:18.988Z,354.38
2018-09-23T11:30:18.981Z,320.63
2018-09-23T11:31:18.977Z,376.88
2018-09-23T11:32:18.972Z,540.00
2018-09-23T11:33:18.971Z,540.00
2018-09-23T11:34:18.964Z,630.00
2018-09-23T11:35:18.954Z,540.00
2018-09-23T11:36:18.949Z,433.13
2018-09-23T11:37:18.947Z,376.88
2018-09-23T11:38:18.942Z,343.13
2018-09-23T11:39:18.935Z,365.63
2018-09-23T11:40:18.933Z,450.00
2018-09-23T11:41:18.920Z,360.00
2018-09-23T11:42:18.914Z,416.25
2018-09-23T11:43:18.910Z,421.88
2018-09-23T11:44:18.903Z,360.00
2018-09-23T11:45:18.901Z,298.13
2018-09-23T11:46:18.900Z,292.50
2018-09-23T11:47:18.892Z,264.38
2018-09-23T11:48:18.887Z,185.63
2018-09-23T11:49:18.875Z,135.00
2018-09-23T11:50:18.874Z,123.75
2018-09-23T11:51:18.869Z,106.88
2018-09-23T11:52:18.866Z,95.63
2018-09-23T11:53:18.856Z,101.25
2018-09-23T11:54:18.848Z,67.50
2018-09-23T11:55:18.842Z,84.38
2018-09-23T11:56:18.836Z,56.25
2018-09-23T11:57:18.835Z,67.50
2018-09-23T11:58:18.828Z,78.75
2018-09-23T11:59:18.824Z,106.88
2018-09-23T12:00:18.817Z,90.00
2018-09-23T12:01:18.808Z,67.50
2018-09-23T12:02:18.851Z,73.13
2018-09-23T12:03:18.795Z,84.38
2018-09-23T12:04:18.821Z,101.25
2018-09-23T12:05:18.788Z,118.13
2018-09-23T12:06:18.781Z,129.38
2018-09-23T12:07:18.771Z,135.00
2018-09-23T12:08:18.766Z,157.50
2018-09-23T12:09:18.764Z,174.38
2018-09-23T12:10:18.796Z,185.63
2018-09-23T12:11:18.752Z,213.75
2018-09-23T12:12:18.746Z,213.75
2018-09-23T12:13:18.734Z,168.75
2018-09-23T12:14:18.729Z,101.25
2018-09-23T12:15:18.723Z,78.75
2018-09-23T12:16:18.717Z,101.25
2018-09-23T12:17:18.713Z,123.75
2018-09-23T12:18:18.707Z,112.50
2018-09-23T12:19:18.704Z,84.38
2018-09-23T12:20:18.697Z,157.50
2018-09-23T12:21:18.686Z,123.75
2018-09-23T12:22:18.680Z,146.25
2018-09-23T12:23:18.678Z,140.63
2018-09-23T12:24:18.673Z,191.25
2018-09-23T12:25:18.691Z,174.38
2018-09-23T12:26:18.656Z,163.13
2018-09-23T12:27:18.648Z,157.50
2018-09-23T12:28:18.644Z,101.25
2018-09-23T12:29:18.641Z,202.50
2018-09-23T12:30:18.639Z,168.75
2018-09-23T12:31:18.629Z,118.13
2018-09-23T12:32:18.624Z,135.00
2018-09-23T12:33:18.658Z,140.63
2018-09-23T12:34:18.605Z,112.50
2018-09-23T12:35:18.600Z,112.50
2018-09-23T12:36:18.593Z,118.13
2018-09-23T12:37:18.595Z,140.63
2018-09-23T12:38:18.585Z,151.88
2018-09-23T12:39:18.575Z,157.50
2018-09-23T12:40:18.569Z,151.88
2018-09-23T12:41:18.569Z,247.50
2018-09-23T12:42:18.560Z,275.63
2018-09-23T12:43:18.555Z,213.75
2018-09-23T12:44:18.549Z,191.25
2018-09-23T12:45:18.537Z,196.88
2018-09-23T12:46:18.532Z,191.25
2018-09-23T12:47:18.525Z,213.75
2018-09-23T12:48:18.521Z,236.25
2018-09-23T12:49:18.517Z,247.50
2018-09-23T12:50:18.512Z,225.00
2018-09-23T12:51:18.504Z,236.25
2018-09-23T12:52:18.498Z,191.25